sensor_id;sensor_type;location;lat;lon;timestamp;P1;durP1;ratioP1;P2;durP2;ratioP2
10657;SDS011;5377;43.276;26.930;2024-01-16T00:02:14;23.40;;;16.37;;
10657;SDS011;5377;43.276;26.930;2024-01-16T00:04:42;12.07;;;8.20;;
10657;SDS011;5377;43.276;26.930;2024-01-16T00:07:09;17.50;;;12.47;;
10657;SDS011;5377;43.276;26.930;2024-01-16T00:09:35;14.50;;;9.90;;
10657;SDS011;5377;43.276;26.930;2024-01-16T00:12:02;9.63;;;6.37;;
10657;SDS011;5377;43.276;26.930;2024-01-16T00:14:29;8.47;;;5.67;;
10657;SDS011;5377;43.276;26.930;2024-01-16T00:16:55;12.00;;;7.27;;
10657;SDS011;5377;43.276;26.930;2024-01-16T00:19:22;17.97;;;12.03;;
10657;SDS011;5377;43.276;26.930;2024-01-16T00:21:49;15.50;;;12.77;;
10657;SDS011;5377;43.276;26.930;2024-01-16T00:24:16;21.13;;;15.37;;
10657;SDS011;5377;43.276;26.930;2024-01-16T00:26:43;22.27;;;13.37;;
10657;SDS011;5377;43.276;26.930;2024-01-16T00:29:09;23.40;;;16.73;;
10657;SDS011;5377;43.276;26.930;2024-01-16T00:31:37;19.47;;;14.17;;
10657;SDS011;5377;43.276;26.930;2024-01-16T00:34:03;13.40;;;10.00;;
10657;SDS011;5377;43.276;26.930;2024-01-16T00:36:30;12.13;;;8.77;;
10657;SDS011;5377;43.276;26.930;2024-01-16T00:38:58;11.60;;;8.80;;
10657;SDS011;5377;43.276;26.930;2024-01-16T00:41:24;10.47;;;8.13;;
10657;SDS011;5377;43.276;26.930;2024-01-16T00:43:52;12.27;;;9.27;;
10657;SDS011;5377;43.276;26.930;2024-01-16T00:46:18;8.20;;;6.80;;
10657;SDS011;5377;43.276;26.930;2024-01-16T00:48:45;10.37;;;6.10;;
10657;SDS011;5377;43.276;26.930;2024-01-16T00:51:13;11.50;;;9.73;;
10657;SDS011;5377;43.276;26.930;2024-01-16T00:53:39;6.77;;;5.83;;
10657;SDS011;5377;43.276;26.930;2024-01-16T00:56:07;8.73;;;5.97;;
10657;SDS011;5377;43.276;26.930;2024-01-16T00:58:34;10.63;;;8.13;;
10657;SDS011;5377;43.276;26.930;2024-01-16T01:01:00;5.53;;;4.30;;
10657;SDS011;5377;43.276;26.930;2024-01-16T01:03:27;12.63;;;7.80;;
10657;SDS011;5377;43.276;26.930;2024-01-16T01:05:53;12.77;;;10.00;;
10657;SDS011;5377;43.276;26.930;2024-01-16T01:08:20;11.37;;;8.90;;
10657;SDS011;5377;43.276;26.930;2024-01-16T01:10:46;6.63;;;4.67;;
10657;SDS011;5377;43.276;26.930;2024-01-16T01:13:14;10.40;;;7.80;;
10657;SDS011;5377;43.276;26.930;2024-01-16T01:15:41;11.00;;;8.90;;
10657;SDS011;5377;43.276;26.930;2024-01-16T01:18:07;14.70;;;10.60;;
10657;SDS011;5377;43.276;26.930;2024-01-16T01:20:34;13.43;;;10.47;;
10657;SDS011;5377;43.276;26.930;2024-01-16T01:23:00;13.23;;;9.93;;
10657;SDS011;5377;43.276;26.930;2024-01-16T01:25:27;12.07;;;8.83;;
10657;SDS011;5377;43.276;26.930;2024-01-16T01:27:53;15.30;;;10.70;;
10657;SDS011;5377;43.276;26.930;2024-01-16T01:30:21;21.43;;;13.40;;
10657;SDS011;5377;43.276;26.930;2024-01-16T01:32:48;16.13;;;10.67;;
10657;SDS011;5377;43.276;26.930;2024-01-16T01:35:16;12.57;;;9.50;;
10657;SDS011;5377;43.276;26.930;2024-01-16T01:37:44;14.43;;;11.80;;
10657;SDS011;5377;43.276;26.930;2024-01-16T01:40:11;17.83;;;12.03;;
10657;SDS011;5377;43.276;26.930;2024-01-16T01:42:40;10.17;;;6.87;;
10657;SDS011;5377;43.276;26.930;2024-01-16T01:45:07;12.67;;;10.27;;
10657;SDS011;5377;43.276;26.930;2024-01-16T01:47:35;8.33;;;5.80;;
10657;SDS011;5377;43.276;26.930;2024-01-16T01:50:02;8.20;;;5.67;;
10657;SDS011;5377;43.276;26.930;2024-01-16T01:52:28;8.67;;;6.63;;
10657;SDS011;5377;43.276;26.930;2024-01-16T01:54:55;9.53;;;6.77;;
10657;SDS011;5377;43.276;26.930;2024-01-16T01:57:22;14.60;;;9.47;;
10657;SDS011;5377;43.276;26.930;2024-01-16T01:59:49;8.53;;;6.27;;
10657;SDS011;5377;43.276;26.930;2024-01-16T02:02:16;12.17;;;10.10;;
10657;SDS011;5377;43.276;26.930;2024-01-16T02:04:44;9.87;;;8.87;;
10657;SDS011;5377;43.276;26.930;2024-01-16T02:07:11;11.20;;;9.07;;
10657;SDS011;5377;43.276;26.930;2024-01-16T02:09:39;7.83;;;6.03;;
10657;SDS011;5377;43.276;26.930;2024-01-16T02:12:06;10.47;;;7.57;;
10657;SDS011;5377;43.276;26.930;2024-01-16T02:14:33;12.03;;;10.20;;
10657;SDS011;5377;43.276;26.930;2024-01-16T02:16:59;13.90;;;10.47;;
10657;SDS011;5377;43.276;26.930;2024-01-16T02:19:26;17.77;;;12.13;;
10657;SDS011;5377;43.276;26.930;2024-01-16T02:21:54;16.30;;;11.27;;
10657;SDS011;5377;43.276;26.930;2024-01-16T02:24:24;13.23;;;11.33;;
10657;SDS011;5377;43.276;26.930;2024-01-16T02:26:50;31.57;;;21.30;;
10657;SDS011;5377;43.276;26.930;2024-01-16T02:29:17;39.97;;;24.10;;
10657;SDS011;5377;43.276;26.930;2024-01-16T02:31:44;23.30;;;15.93;;
10657;SDS011;5377;43.276;26.930;2024-01-16T02:34:11;20.77;;;14.53;;
10657;SDS011;5377;43.276;26.930;2024-01-16T02:36:38;16.77;;;11.37;;
10657;SDS011;5377;43.276;26.930;2024-01-16T02:39:05;23.03;;;15.50;;
10657;SDS011;5377;43.276;26.930;2024-01-16T02:41:33;11.83;;;8.63;;
10657;SDS011;5377;43.276;26.930;2024-01-16T02:43:59;14.33;;;12.07;;
10657;SDS011;5377;43.276;26.930;2024-01-16T02:46:26;17.57;;;11.93;;
10657;SDS011;5377;43.276;26.930;2024-01-16T02:48:52;8.57;;;6.20;;
10657;SDS011;5377;43.276;26.930;2024-01-16T02:51:19;17.50;;;13.20;;
10657;SDS011;5377;43.276;26.930;2024-01-16T02:53:45;14.10;;;11.03;;
10657;SDS011;5377;43.276;26.930;2024-01-16T02:56:12;19.40;;;13.23;;
10657;SDS011;5377;43.276;26.930;2024-01-16T02:58:40;17.80;;;13.03;;
10657;SDS011;5377;43.276;26.930;2024-01-16T03:01:06;16.53;;;12.80;;
10657;SDS011;5377;43.276;26.930;2024-01-16T03:03:33;16.67;;;12.07;;
10657;SDS011;5377;43.276;26.930;2024-01-16T03:06:00;16.90;;;12.90;;
10657;SDS011;5377;43.276;26.930;2024-01-16T03:08:26;19.07;;;12.43;;
10657;SDS011;5377;43.276;26.930;2024-01-16T03:10:53;13.03;;;9.70;;
10657;SDS011;5377;43.276;26.930;2024-01-16T03:13:19;14.00;;;10.57;;
10657;SDS011;5377;43.276;26.930;2024-01-16T03:15:47;16.03;;;11.90;;
10657;SDS011;5377;43.276;26.930;2024-01-16T03:18:14;20.77;;;13.00;;
10657;SDS011;5377;43.276;26.930;2024-01-16T03:20:40;17.67;;;12.63;;
10657;SDS011;5377;43.276;26.930;2024-01-16T03:23:07;16.93;;;12.10;;
10657;SDS011;5377;43.276;26.930;2024-01-16T03:25:34;19.57;;;12.93;;
10657;SDS011;5377;43.276;26.930;2024-01-16T03:28:04;17.83;;;13.40;;
10657;SDS011;5377;43.276;26.930;2024-01-16T03:30:32;5.17;;;3.73;;
10657;SDS011;5377;43.276;26.930;2024-01-16T03:33:00;3.57;;;3.07;;
10657;SDS011;5377;43.276;26.930;2024-01-16T03:35:27;2.50;;;2.30;;
10657;SDS011;5377;43.276;26.930;2024-01-16T03:37:53;1.27;;;1.07;;
10657;SDS011;5377;43.276;26.930;2024-01-16T03:40:20;1.10;;;0.80;;
10657;SDS011;5377;43.276;26.930;2024-01-16T03:42:46;0.90;;;0.70;;
10657;SDS011;5377;43.276;26.930;2024-01-16T03:45:13;0.80;;;0.80;;
10657;SDS011;5377;43.276;26.930;2024-01-16T03:47:40;1.53;;;0.70;;
10657;SDS011;5377;43.276;26.930;2024-01-16T03:50:08;0.93;;;0.50;;
10657;SDS011;5377;43.276;26.930;2024-01-16T03:52:35;1.07;;;0.60;;
10657;SDS011;5377;43.276;26.930;2024-01-16T03:55:01;1.20;;;1.07;;
10657;SDS011;5377;43.276;26.930;2024-01-16T03:57:28;0.93;;;0.83;;
10657;SDS011;5377;43.276;26.930;2024-01-16T03:59:55;1.07;;;0.77;;
10657;SDS011;5377;43.276;26.930;2024-01-16T04:02:21;0.87;;;0.87;;
10657;SDS011;5377;43.276;26.930;2024-01-16T04:04:48;1.63;;;0.93;;
10657;SDS011;5377;43.276;26.930;2024-01-16T04:07:16;1.07;;;0.87;;
10657;SDS011;5377;43.276;26.930;2024-01-16T04:09:42;1.47;;;1.10;;
10657;SDS011;5377;43.276;26.930;2024-01-16T04:12:09;0.67;;;0.60;;
10657;SDS011;5377;43.276;26.930;2024-01-16T04:14:36;1.00;;;0.83;;
10657;SDS011;5377;43.276;26.930;2024-01-16T04:17:03;0.80;;;0.80;;
10657;SDS011;5377;43.276;26.930;2024-01-16T04:19:29;1.00;;;0.90;;
10657;SDS011;5377;43.276;26.930;2024-01-16T04:21:58;0.90;;;0.90;;
10657;SDS011;5377;43.276;26.930;2024-01-16T04:24:26;0.83;;;0.50;;
10657;SDS011;5377;43.276;26.930;2024-01-16T04:26:53;1.47;;;1.30;;
10657;SDS011;5377;43.276;26.930;2024-01-16T04:29:19;1.27;;;0.80;;
10657;SDS011;5377;43.276;26.930;2024-01-16T04:31:46;1.50;;;1.40;;
10657;SDS011;5377;43.276;26.930;2024-01-16T04:34:13;0.90;;;0.90;;
10657;SDS011;5377;43.276;26.930;2024-01-16T04:36:39;1.23;;;1.13;;
10657;SDS011;5377;43.276;26.930;2024-01-16T04:39:06;1.80;;;1.40;;
10657;SDS011;5377;43.276;26.930;2024-01-16T04:41:35;0.97;;;0.87;;
10657;SDS011;5377;43.276;26.930;2024-01-16T04:44:01;1.50;;;1.40;;
10657;SDS011;5377;43.276;26.930;2024-01-16T04:46:28;2.20;;;1.97;;
10657;SDS011;5377;43.276;26.930;2024-01-16T04:48:54;2.80;;;1.60;;
10657;SDS011;5377;43.276;26.930;2024-01-16T04:51:21;2.80;;;1.70;;
10657;SDS011;5377;43.276;26.930;2024-01-16T04:53:47;1.20;;;1.10;;
10657;SDS011;5377;43.276;26.930;2024-01-16T04:56:14;1.80;;;1.70;;
10657;SDS011;5377;43.276;26.930;2024-01-16T04:58:42;3.03;;;2.73;;
10657;SDS011;5377;43.276;26.930;2024-01-16T05:01:08;1.70;;;1.60;;
10657;SDS011;5377;43.276;26.930;2024-01-16T05:03:35;2.90;;;2.17;;
10657;SDS011;5377;43.276;26.930;2024-01-16T05:06:01;3.73;;;1.83;;
10657;SDS011;5377;43.276;26.930;2024-01-16T05:08:28;2.73;;;2.03;;
10657;SDS011;5377;43.276;26.930;2024-01-16T05:10:55;2.10;;;1.83;;
10657;SDS011;5377;43.276;26.930;2024-01-16T05:13:22;3.23;;;2.83;;
10657;SDS011;5377;43.276;26.930;2024-01-16T05:15:49;3.23;;;2.70;;
10657;SDS011;5377;43.276;26.930;2024-01-16T05:18:16;3.67;;;2.73;;
10657;SDS011;5377;43.276;26.930;2024-01-16T05:20:42;3.27;;;2.80;;
10657;SDS011;5377;43.276;26.930;2024-01-16T05:23:09;5.47;;;2.97;;
10657;SDS011;5377;43.276;26.930;2024-01-16T05:25:36;4.17;;;2.80;;
10657;SDS011;5377;43.276;26.930;2024-01-16T05:28:03;6.03;;;4.53;;
10657;SDS011;5377;43.276;26.930;2024-01-16T05:30:29;6.10;;;3.57;;
10657;SDS011;5377;43.276;26.930;2024-01-16T05:32:57;6.77;;;4.37;;
10657;SDS011;5377;43.276;26.930;2024-01-16T05:35:26;6.03;;;4.73;;
10657;SDS011;5377;43.276;26.930;2024-01-16T05:37:52;4.73;;;4.13;;
10657;SDS011;5377;43.276;26.930;2024-01-16T05:40:19;3.93;;;3.63;;
10657;SDS011;5377;43.276;26.930;2024-01-16T05:42:46;7.43;;;5.00;;
10657;SDS011;5377;43.276;26.930;2024-01-16T05:45:13;8.10;;;5.60;;
10657;SDS011;5377;43.276;26.930;2024-01-16T05:47:39;9.20;;;6.93;;
10657;SDS011;5377;43.276;26.930;2024-01-16T05:50:08;8.60;;;5.70;;
10657;SDS011;5377;43.276;26.930;2024-01-16T05:52:34;10.17;;;4.63;;
10657;SDS011;5377;43.276;26.930;2024-01-16T05:55:01;7.20;;;4.67;;
10657;SDS011;5377;43.276;26.930;2024-01-16T05:57:29;9.90;;;6.37;;
10657;SDS011;5377;43.276;26.930;2024-01-16T05:59:56;8.67;;;7.30;;
10657;SDS011;5377;43.276;26.930;2024-01-16T06:02:23;7.07;;;5.50;;
10657;SDS011;5377;43.276;26.930;2024-01-16T06:04:49;10.07;;;7.43;;
10657;SDS011;5377;43.276;26.930;2024-01-16T06:07:17;8.07;;;4.90;;
10657;SDS011;5377;43.276;26.930;2024-01-16T06:09:44;7.00;;;4.97;;
10657;SDS011;5377;43.276;26.930;2024-01-16T06:12:10;6.03;;;5.10;;
10657;SDS011;5377;43.276;26.930;2024-01-16T06:14:37;5.87;;;4.67;;
10657;SDS011;5377;43.276;26.930;2024-01-16T06:17:04;8.43;;;5.83;;
10657;SDS011;5377;43.276;26.930;2024-01-16T06:19:31;11.00;;;8.27;;
10657;SDS011;5377;43.276;26.930;2024-01-16T06:21:58;11.03;;;9.37;;
10657;SDS011;5377;43.276;26.930;2024-01-16T06:24:25;13.77;;;10.10;;
10657;SDS011;5377;43.276;26.930;2024-01-16T06:26:52;12.33;;;10.20;;
10657;SDS011;5377;43.276;26.930;2024-01-16T06:29:19;13.97;;;9.67;;
10657;SDS011;5377;43.276;26.930;2024-01-16T06:31:45;17.87;;;11.50;;
10657;SDS011;5377;43.276;26.930;2024-01-16T06:34:11;18.93;;;12.70;;
10657;SDS011;5377;43.276;26.930;2024-01-16T06:36:38;17.13;;;10.20;;
10657;SDS011;5377;43.276;26.930;2024-01-16T06:39:04;17.73;;;14.90;;
10657;SDS011;5377;43.276;26.930;2024-01-16T06:41:33;17.93;;;12.03;;
10657;SDS011;5377;43.276;26.930;2024-01-16T06:43:59;22.83;;;16.23;;
10657;SDS011;5377;43.276;26.930;2024-01-16T06:46:26;25.30;;;18.70;;
10657;SDS011;5377;43.276;26.930;2024-01-16T06:48:52;21.07;;;16.17;;
10657;SDS011;5377;43.276;26.930;2024-01-16T06:51:19;26.27;;;17.63;;
10657;SDS011;5377;43.276;26.930;2024-01-16T06:53:45;19.17;;;14.03;;
10657;SDS011;5377;43.276;26.930;2024-01-16T06:56:12;20.87;;;16.57;;
10657;SDS011;5377;43.276;26.930;2024-01-16T06:58:40;15.80;;;10.93;;
10657;SDS011;5377;43.276;26.930;2024-01-16T07:01:06;21.97;;;13.67;;
10657;SDS011;5377;43.276;26.930;2024-01-16T07:03:33;17.53;;;13.70;;
10657;SDS011;5377;43.276;26.930;2024-01-16T07:06:00;15.53;;;13.10;;
10657;SDS011;5377;43.276;26.930;2024-01-16T07:08:27;17.30;;;14.03;;
10657;SDS011;5377;43.276;26.930;2024-01-16T07:10:54;19.30;;;13.43;;
10657;SDS011;5377;43.276;26.930;2024-01-16T07:13:21;14.50;;;10.80;;
10657;SDS011;5377;43.276;26.930;2024-01-16T07:15:49;19.13;;;13.80;;
10657;SDS011;5377;43.276;26.930;2024-01-16T07:18:16;15.63;;;12.03;;
10657;SDS011;5377;43.276;26.930;2024-01-16T07:20:43;17.40;;;13.20;;
10657;SDS011;5377;43.276;26.930;2024-01-16T07:23:10;11.07;;;9.03;;
10657;SDS011;5377;43.276;26.930;2024-01-16T07:25:37;14.47;;;10.93;;
10657;SDS011;5377;43.276;26.930;2024-01-16T07:28:05;12.00;;;8.67;;
10657;SDS011;5377;43.276;26.930;2024-01-16T07:30:31;11.53;;;8.63;;
10657;SDS011;5377;43.276;26.930;2024-01-16T07:32:59;11.17;;;8.17;;
10657;SDS011;5377;43.276;26.930;2024-01-16T07:35:26;11.17;;;7.80;;
10657;SDS011;5377;43.276;26.930;2024-01-16T07:37:52;12.33;;;10.87;;
10657;SDS011;5377;43.276;26.930;2024-01-16T07:40:18;10.07;;;7.87;;
10657;SDS011;5377;43.276;26.930;2024-01-16T07:42:45;8.53;;;7.17;;
10657;SDS011;5377;43.276;26.930;2024-01-16T07:45:12;9.03;;;6.27;;
10657;SDS011;5377;43.276;26.930;2024-01-16T07:47:38;8.20;;;6.80;;
10657;SDS011;5377;43.276;26.930;2024-01-16T07:50:06;7.97;;;5.33;;
10657;SDS011;5377;43.276;26.930;2024-01-16T07:52:33;7.90;;;6.70;;
10657;SDS011;5377;43.276;26.930;2024-01-16T07:55:00;10.43;;;6.63;;
10657;SDS011;5377;43.276;26.930;2024-01-16T07:57:26;4.77;;;4.23;;
10657;SDS011;5377;43.276;26.930;2024-01-16T07:59:52;11.17;;;7.47;;
10657;SDS011;5377;43.276;26.930;2024-01-16T08:02:19;4.07;;;2.90;;
10657;SDS011;5377;43.276;26.930;2024-01-16T08:04:46;5.47;;;4.93;;
10657;SDS011;5377;43.276;26.930;2024-01-16T08:07:13;5.93;;;3.83;;
10657;SDS011;5377;43.276;26.930;2024-01-16T08:09:40;3.50;;;3.20;;
10657;SDS011;5377;43.276;26.930;2024-01-16T08:12:07;3.40;;;2.70;;
10657;SDS011;5377;43.276;26.930;2024-01-16T08:14:33;3.97;;;3.67;;
10657;SDS011;5377;43.276;26.930;2024-01-16T08:17:00;3.10;;;2.80;;
10657;SDS011;5377;43.276;26.930;2024-01-16T08:19:26;1.97;;;1.87;;
10657;SDS011;5377;43.276;26.930;2024-01-16T08:21:53;4.13;;;3.13;;
10657;SDS011;5377;43.276;26.930;2024-01-16T08:24:20;5.00;;;2.93;;
10657;SDS011;5377;43.276;26.930;2024-01-16T08:26:47;2.97;;;2.77;;
10657;SDS011;5377;43.276;26.930;2024-01-16T08:29:14;2.50;;;2.13;;
10657;SDS011;5377;43.276;26.930;2024-01-16T08:31:41;3.73;;;3.37;;
10657;SDS011;5377;43.276;26.930;2024-01-16T08:34:07;3.33;;;3.03;;
10657;SDS011;5377;43.276;26.930;2024-01-16T08:36:34;3.70;;;2.17;;
10657;SDS011;5377;43.276;26.930;2024-01-16T08:39:00;1.90;;;1.80;;
10657;SDS011;5377;43.276;26.930;2024-01-16T08:41:29;2.67;;;2.20;;
10657;SDS011;5377;43.276;26.930;2024-01-16T08:43:55;2.90;;;2.57;;
10657;SDS011;5377;43.276;26.930;2024-01-16T08:46:22;2.60;;;2.07;;
10657;SDS011;5377;43.276;26.930;2024-01-16T08:48:48;5.27;;;1.70;;
10657;SDS011;5377;43.276;26.930;2024-01-16T08:51:15;2.63;;;2.37;;
10657;SDS011;5377;43.276;26.930;2024-01-16T08:53:41;4.80;;;2.10;;
10657;SDS011;5377;43.276;26.930;2024-01-16T08:56:08;1.07;;;0.97;;
10657;SDS011;5377;43.276;26.930;2024-01-16T08:58:38;2.40;;;1.10;;
10657;SDS011;5377;43.276;26.930;2024-01-16T09:01:05;1.20;;;1.10;;
10657;SDS011;5377;43.276;26.930;2024-01-16T09:03:32;4.43;;;1.30;;
10657;SDS011;5377;43.276;26.930;2024-01-16T09:05:58;2.57;;;1.20;;
10657;SDS011;5377;43.276;26.930;2024-01-16T09:08:25;2.03;;;1.07;;
10657;SDS011;5377;43.276;26.930;2024-01-16T09:10:52;1.50;;;1.40;;
10657;SDS011;5377;43.276;26.930;2024-01-16T09:13:19;1.10;;;1.00;;
10657;SDS011;5377;43.276;26.930;2024-01-16T09:15:47;0.60;;;0.60;;
10657;SDS011;5377;43.276;26.930;2024-01-16T09:18:14;0.60;;;0.60;;
10657;SDS011;5377;43.276;26.930;2024-01-16T09:20:41;3.30;;;1.10;;
10657;SDS011;5377;43.276;26.930;2024-01-16T09:23:07;1.27;;;0.80;;
10657;SDS011;5377;43.276;26.930;2024-01-16T09:25:34;4.40;;;0.70;;
10657;SDS011;5377;43.276;26.930;2024-01-16T09:28:00;1.17;;;0.83;;
10657;SDS011;5377;43.276;26.930;2024-01-16T09:30:27;1.33;;;0.80;;
10657;SDS011;5377;43.276;26.930;2024-01-16T09:32:55;1.67;;;1.10;;
10657;SDS011;5377;43.276;26.930;2024-01-16T09:35:21;1.30;;;1.00;;
10657;SDS011;5377;43.276;26.930;2024-01-16T09:37:48;0.70;;;0.70;;
10657;SDS011;5377;43.276;26.930;2024-01-16T09:40:14;1.27;;;1.10;;
10657;SDS011;5377;43.276;26.930;2024-01-16T09:42:41;1.23;;;1.03;;
10657;SDS011;5377;43.276;26.930;2024-01-16T09:45:07;1.17;;;0.70;;
10657;SDS011;5377;43.276;26.930;2024-01-16T09:47:34;2.30;;;2.03;;
10657;SDS011;5377;43.276;26.930;2024-01-16T09:50:05;0.97;;;0.70;;
10657;SDS011;5377;43.276;26.930;2024-01-16T09:52:32;3.35;;;1.88;;
10657;SDS011;5377;43.276;26.930;2024-01-16T09:54:59;4.70;;;1.55;;
10657;SDS011;5377;43.276;26.930;2024-01-16T09:57:26;2.78;;;1.70;;
10657;SDS011;5377;43.276;26.930;2024-01-16T09:59:53;0.82;;;0.60;;
10657;SDS011;5377;43.276;26.930;2024-01-16T10:02:20;0.55;;;0.55;;
10657;SDS011;5377;43.276;26.930;2024-01-16T10:04:48;2.70;;;1.08;;
10657;SDS011;5377;43.276;26.930;2024-01-16T10:07:16;1.80;;;1.48;;
10657;SDS011;5377;43.276;26.930;2024-01-16T10:09:43;0.50;;;0.50;;
10657;SDS011;5377;43.276;26.930;2024-01-16T10:12:09;1.27;;;0.50;;
10657;SDS011;5377;43.276;26.930;2024-01-16T10:14:36;1.52;;;1.42;;
10657;SDS011;5377;43.276;26.930;2024-01-16T10:17:03;2.95;;;0.77;;
10657;SDS011;5377;43.276;26.930;2024-01-16T10:19:32;0.50;;;0.47;;
10657;SDS011;5377;43.276;26.930;2024-01-16T10:22:02;4.10;;;0.98;;
10657;SDS011;5377;43.276;26.930;2024-01-16T10:24:30;1.20;;;0.82;;
10657;SDS011;5377;43.276;26.930;2024-01-16T10:26:59;0.95;;;0.82;;
10657;SDS011;5377;43.276;26.930;2024-01-16T10:29:28;0.80;;;0.47;;
10657;SDS011;5377;43.276;26.930;2024-01-16T10:31:54;0.65;;;0.65;;
10657;SDS011;5377;43.276;26.930;2024-01-16T10:34:21;1.75;;;1.00;;
10657;SDS011;5377;43.276;26.930;2024-01-16T10:36:49;1.73;;;1.08;;
10657;SDS011;5377;43.276;26.930;2024-01-16T10:39:16;3.00;;;1.67;;
10657;SDS011;5377;43.276;26.930;2024-01-16T10:41:46;0.60;;;0.60;;
10657;SDS011;5377;43.276;26.930;2024-01-16T10:44:21;1.02;;;0.65;;
10657;SDS011;5377;43.276;26.930;2024-01-16T10:46:47;0.70;;;0.60;;
10657;SDS011;5377;43.276;26.930;2024-01-16T10:49:14;0.98;;;0.95;;
10657;SDS011;5377;43.276;26.930;2024-01-16T10:51:41;3.13;;;0.75;;
10657;SDS011;5377;43.276;26.930;2024-01-16T10:54:10;2.53;;;0.90;;
10657;SDS011;5377;43.276;26.930;2024-01-16T10:56:39;2.60;;;2.40;;
10657;SDS011;5377;43.276;26.930;2024-01-16T10:59:10;2.30;;;1.20;;
10657;SDS011;5377;43.276;26.930;2024-01-16T11:01:38;3.00;;;1.38;;
10657;SDS011;5377;43.276;26.930;2024-01-16T11:04:07;4.60;;;1.50;;
10657;SDS011;5377;43.276;26.930;2024-01-16T11:06:34;3.33;;;1.55;;
10657;SDS011;5377;43.276;26.930;2024-01-16T11:09:01;1.30;;;1.10;;
10657;SDS011;5377;43.276;26.930;2024-01-16T11:11:27;5.05;;;1.85;;
10657;SDS011;5377;43.276;26.930;2024-01-16T11:13:54;1.90;;;1.67;;
10657;SDS011;5377;43.276;26.930;2024-01-16T11:16:23;4.18;;;2.22;;
10657;SDS011;5377;43.276;26.930;2024-01-16T11:18:50;3.13;;;2.28;;
10657;SDS011;5377;43.276;26.930;2024-01-16T11:21:16;4.22;;;1.38;;
10657;SDS011;5377;43.276;26.930;2024-01-16T11:23:43;2.63;;;2.40;;
10657;SDS011;5377;43.276;26.930;2024-01-16T11:26:26;6.82;;;1.55;;
10657;SDS011;5377;43.276;26.930;2024-01-16T11:28:53;3.75;;;1.73;;
10657;SDS011;5377;43.276;26.930;2024-01-16T11:31:29;1.02;;;0.90;;
10657;SDS011;5377;43.276;26.930;2024-01-16T11:33:55;1.88;;;1.70;;
10657;SDS011;5377;43.276;26.930;2024-01-16T11:39:07;2.55;;;1.98;;
10657;SDS011;5377;43.276;26.930;2024-01-16T11:41:49;2.40;;;1.15;;
10657;SDS011;5377;43.276;26.930;2024-01-16T11:47:02;0.85;;;0.70;;
10657;SDS011;5377;43.276;26.930;2024-01-16T11:49:28;1.65;;;1.10;;
10657;SDS011;5377;43.276;26.930;2024-01-16T11:51:56;1.30;;;0.95;;
10657;SDS011;5377;43.276;26.930;2024-01-16T11:54:23;1.60;;;1.35;;
10657;SDS011;5377;43.276;26.930;2024-01-16T11:59:42;3.03;;;1.08;;
10657;SDS011;5377;43.276;26.930;2024-01-16T12:02:23;2.05;;;1.15;;
10657;SDS011;5377;43.276;26.930;2024-01-16T12:04:52;2.25;;;0.82;;
10657;SDS011;5377;43.276;26.930;2024-01-16T12:07:21;1.90;;;1.70;;
10657;SDS011;5377;43.276;26.930;2024-01-16T12:09:48;1.83;;;1.63;;
10657;SDS011;5377;43.276;26.930;2024-01-16T12:12:15;0.75;;;0.70;;
10657;SDS011;5377;43.276;26.930;2024-01-16T12:14:50;2.33;;;2.13;;
10657;SDS011;5377;43.276;26.930;2024-01-16T12:17:18;4.30;;;2.20;;
10657;SDS011;5377;43.276;26.930;2024-01-16T12:19:45;2.25;;;1.73;;
10657;SDS011;5377;43.276;26.930;2024-01-16T12:22:13;1.30;;;1.20;;
10657;SDS011;5377;43.276;26.930;2024-01-16T12:24:40;0.95;;;0.93;;
10657;SDS011;5377;43.276;26.930;2024-01-16T12:27:07;2.33;;;2.13;;
10657;SDS011;5377;43.276;26.930;2024-01-16T12:29:34;2.55;;;1.00;;
10657;SDS011;5377;43.276;26.930;2024-01-16T12:32:07;0.80;;;0.80;;
10657;SDS011;5377;43.276;26.930;2024-01-16T12:34:41;1.13;;;1.02;;
10657;SDS011;5377;43.276;26.930;2024-01-16T12:37:09;2.00;;;1.05;;
10657;SDS011;5377;43.276;26.930;2024-01-16T12:39:35;3.58;;;1.95;;
10657;SDS011;5377;43.276;26.930;2024-01-16T12:42:02;2.47;;;1.95;;
10657;SDS011;5377;43.276;26.930;2024-01-16T12:44:29;1.73;;;1.63;;
10657;SDS011;5377;43.276;26.930;2024-01-16T12:46:55;1.10;;;0.90;;
10657;SDS011;5377;43.276;26.930;2024-01-16T12:49:22;1.48;;;1.38;;
10657;SDS011;5377;43.276;26.930;2024-01-16T12:51:50;6.40;;;2.47;;
10657;SDS011;5377;43.276;26.930;2024-01-16T12:54:18;2.80;;;2.33;;
10657;SDS011;5377;43.276;26.930;2024-01-16T12:56:47;2.75;;;2.55;;
10657;SDS011;5377;43.276;26.930;2024-01-16T12:59:14;1.55;;;1.45;;
10657;SDS011;5377;43.276;26.930;2024-01-16T13:14:23;2.20;;;2.00;;
10657;SDS011;5377;43.276;26.930;2024-01-16T13:16:51;3.95;;;2.65;;
10657;SDS011;5377;43.276;26.930;2024-01-16T13:19:20;6.15;;;4.20;;
10657;SDS011;5377;43.276;26.930;2024-01-16T13:21:48;5.32;;;3.25;;
10657;SDS011;5377;43.276;26.930;2024-01-16T13:24:15;4.30;;;1.92;;
10657;SDS011;5377;43.276;26.930;2024-01-16T13:26:46;4.20;;;3.00;;
10657;SDS011;5377;43.276;26.930;2024-01-16T13:29:13;3.38;;;2.83;;
10657;SDS011;5377;43.276;26.930;2024-01-16T13:31:41;2.95;;;2.05;;
10657;SDS011;5377;43.276;26.930;2024-01-16T13:34:08;3.25;;;2.60;;
10657;SDS011;5377;43.276;26.930;2024-01-16T13:36:35;1.65;;;1.55;;
10657;SDS011;5377;43.276;26.930;2024-01-16T13:39:02;1.97;;;1.40;;
10657;SDS011;5377;43.276;26.930;2024-01-16T13:41:31;6.57;;;5.47;;
10657;SDS011;5377;43.276;26.930;2024-01-16T13:43:58;6.20;;;4.87;;
10657;SDS011;5377;43.276;26.930;2024-01-16T13:46:25;2.73;;;2.50;;
10657;SDS011;5377;43.276;26.930;2024-01-16T13:48:53;3.60;;;2.40;;
10657;SDS011;5377;43.276;26.930;2024-01-16T13:51:20;2.77;;;2.50;;
10657;SDS011;5377;43.276;26.930;2024-01-16T13:53:46;3.83;;;2.97;;
10657;SDS011;5377;43.276;26.930;2024-01-16T13:56:13;3.40;;;2.30;;
10657;SDS011;5377;43.276;26.930;2024-01-16T13:58:40;4.30;;;3.10;;
10657;SDS011;5377;43.276;26.930;2024-01-16T14:01:07;2.93;;;1.87;;
10657;SDS011;5377;43.276;26.930;2024-01-16T14:03:34;2.37;;;2.03;;
10657;SDS011;5377;43.276;26.930;2024-01-16T14:06:03;2.30;;;1.87;;
10657;SDS011;5377;43.276;26.930;2024-01-16T14:08:32;6.00;;;3.63;;
10657;SDS011;5377;43.276;26.930;2024-01-16T14:10:59;8.33;;;3.23;;
10657;SDS011;5377;43.276;26.930;2024-01-16T14:13:26;3.13;;;2.80;;
10657;SDS011;5377;43.276;26.930;2024-01-16T14:15:54;2.23;;;1.93;;
10657;SDS011;5377;43.276;26.930;2024-01-16T14:18:22;2.47;;;2.10;;
10657;SDS011;5377;43.276;26.930;2024-01-16T14:20:49;3.13;;;2.37;;
10657;SDS011;5377;43.276;26.930;2024-01-16T14:23:17;3.03;;;2.53;;
10657;SDS011;5377;43.276;26.930;2024-01-16T14:25:45;2.90;;;1.97;;
10657;SDS011;5377;43.276;26.930;2024-01-16T14:28:12;8.23;;;4.30;;
10657;SDS011;5377;43.276;26.930;2024-01-16T14:30:37;3.80;;;2.50;;
10657;SDS011;5377;43.276;26.930;2024-01-16T14:33:05;2.57;;;2.37;;
10657;SDS011;5377;43.276;26.930;2024-01-16T14:35:33;8.87;;;4.90;;
10657;SDS011;5377;43.276;26.930;2024-01-16T14:38:00;6.20;;;4.80;;
10657;SDS011;5377;43.276;26.930;2024-01-16T14:40:28;5.27;;;4.17;;
10657;SDS011;5377;43.276;26.930;2024-01-16T14:42:55;6.63;;;2.97;;
10657;SDS011;5377;43.276;26.930;2024-01-16T14:45:23;3.10;;;2.50;;
10657;SDS011;5377;43.276;26.930;2024-01-16T14:47:51;4.03;;;2.80;;
10657;SDS011;5377;43.276;26.930;2024-01-16T14:50:18;4.13;;;3.37;;
10657;SDS011;5377;43.276;26.930;2024-01-16T14:52:47;3.33;;;2.93;;
10657;SDS011;5377;43.276;26.930;2024-01-16T14:55:14;3.80;;;3.50;;
10657;SDS011;5377;43.276;26.930;2024-01-16T14:57:43;3.63;;;3.10;;
10657;SDS011;5377;43.276;26.930;2024-01-16T15:00:13;2.07;;;1.73;;
10657;SDS011;5377;43.276;26.930;2024-01-16T15:02:44;3.83;;;3.43;;